Tenino, Washington
Current Conditions -  °F | °C
As of 10:54 AM on Tuesday 21 Oct 2014 (Local Time) from KOLM Reporting Station
Broken Clouds Broken Clouds  
Wind Chill: 56°   Ceiling: 6000
Heat Index: 56°   Visibility: 10mi
Dew Point: 51°   Wind: 16mph
Humidity: 84%   Direction: 180°S
Pressure: 29.93"   Gusts: NA
Location:  46.86°N, 122.85°W
Report Text: KOLM 211754Z 18014KT 10SM BKN060 BKN075 13/11 A2993 RMK AO2 RAB1658E32 SLP134 P0000 60003 T01330106 10133 20117 51013
Loading
Personal Weather Stations






























Interactive Weather Map
Tropical Storm Tracking
New forecast layout! Learn more

10-Day Weather Forecast

Advertisements
Track Severe Weather on mobile